Terminal Aerodrome Forecast
Issued by NWS Sioux Falls, SD

Home | Current Version | Previous Version | Text Only | Print | Product List | Glossary On
Versions: 1 2 3 4 5 6 7 8 9 10 11 12 13 14 15
493
FTUS43 KFSD 101741
TAFHON
TAF
KHON 101741Z 1018/1118 12012KT P6SM BKN015
     FM102200 10007KT P6SM SCT015 OVC050
     FM110100 08005KT P6SM BKN015 OVC150
     FM110900 12005KT P6SM OVC009
     FM111400 15004KT P6SM OVC015=

USA.gov is the U.S. government's official web portal to all federal, state and local government web resources and services.